Terminal Aerodrome Forecast
Issued by NWS

Home | Current Version | Previous Version | Text Only | Print | Product List | Glossary On
Versions: 1 2 3 4 5 6 7 8 9 10 11 12 13
000
FTAK31 PANC 171739
TAFAGK
TAF
PAGK 171739Z 1718/1818 VRB03KT P6SM BKN015
      TEMPO 1718/1720 SCT020
     FM172000 VRB04KT P6SM SCT200
     FM181200 VRB03KT P6SM BKN060=

USA.gov is the U.S. government's official web portal to all federal, state and local government web resources and services.